Time;durP1;ratioP1;P1;durP2;ratioP2;P2;SDS_P1;SDS_P2;PMS_P1;PMS_P2;Temp;Humidity;BMP_temperature;BMP_pressure;BME280_temperature;BME280_humidity;BME280_pressure;Samples;Min_cycle;Max_cycle;Signal;HPM_P1;HPM_P2
2021/08/07 00:00:10;;;;;;;3.42;3.13;;;;;;;19.41;68.50;99879.91;5010526;28;20278;-50
2021/08/07 00:02:35;;;;;;;2.67;2.47;;;;;;;19.40;68.67;99878.19;5010267;28;20055;-50
2021/08/07 00:05:00;;;;;;;3.25;2.42;;;;;;;19.38;68.64;99874.72;5008478;28;20037;-50
2021/08/07 00:07:27;;;;;;;3.03;2.70;;;;;;;19.35;69.01;99865.91;5010477;28;20393;-50
2021/08/07 00:09:55;;;;;;;3.58;2.85;;;;;;;19.38;68.62;99872.06;5010531;28;20036;-50
2021/08/07 00:12:21;;;;;;;2.92;2.65;;;;;;;19.38;68.73;99872.06;5010288;28;20406;-50
2021/08/07 00:14:46;;;;;;;2.97;2.58;;;;;;;19.40;68.69;99879.03;5009819;28;20028;-50
2021/08/07 00:17:11;;;;;;;2.97;2.67;;;;;;;19.39;68.66;99884.47;5014472;28;20025;-49
2021/08/07 00:19:37;;;;;;;2.45;2.25;;;;;;;19.40;68.68;99883.53;5013106;28;20037;-50
2021/08/07 00:22:06;;;;;;;3.35;2.35;;;;;;;19.39;68.51;99879.13;5015835;28;20095;-49
2021/08/07 00:24:32;;;;;;;3.65;3.10;;;;;;;19.32;68.72;99871.47;5014422;28;20021;-50
2021/08/07 00:26:57;;;;;;;2.30;2.10;;;;;;;19.38;68.63;99882.75;5016200;28;20104;-49
2021/08/07 00:29:22;;;;;;;2.75;2.50;;;;;;;19.36;68.64;99873.00;5013143;28;20046;-50
2021/08/07 00:31:48;;;;;;;2.65;2.45;;;;;;;19.38;68.53;99875.59;5013281;28;20100;-50
2021/08/07 00:34:13;;;;;;;4.40;2.55;;;;;;;19.35;68.59;99876.63;5014116;28;20032;-49
2021/08/07 00:36:38;;;;;;;2.72;2.53;;;;;;;19.36;68.65;99880.16;5013968;28;20026;-50
2021/08/07 00:39:04;;;;;;;2.70;2.50;;;;;;;19.34;68.67;99876.72;5012419;28;20025;-51
2021/08/07 00:41:29;;;;;;;3.17;2.22;;;;;;;19.33;68.61;99875.84;5013500;28;20034;-50
2021/08/07 00:43:54;;;;;;;2.28;2.08;;;;;;;19.31;68.74;99880.41;5013149;28;20025;-50
2021/08/07 00:46:20;;;;;;;2.75;2.55;;;;;;;19.36;68.64;99874.81;5013652;28;20025;-49
2021/08/07 00:48:45;;;;;;;2.60;2.40;;;;;;;19.32;68.62;99867.94;5009669;28;20034;-50
2021/08/07 00:51:10;;;;;;;2.38;2.17;;;;;;;19.32;68.59;99871.47;5014624;28;20034;-50
2021/08/07 00:53:36;;;;;;;2.58;2.38;;;;;;;19.31;68.66;99864.38;5008944;28;20708;-49
2021/08/07 00:56:01;;;;;;;2.97;2.78;;;;;;;19.30;68.53;99868.00;5015063;28;20037;-47
2021/08/07 00:58:26;;;;;;;2.53;2.33;;;;;;;19.30;68.75;99864.47;5012819;28;20532;-47
2021/08/07 01:00:52;;;;;;;2.53;2.33;;;;;;;19.29;68.72;99866.31;5013553;28;20393;-48
2021/08/07 01:03:27;;;;;;;3.65;2.50;;;;;;;19.27;68.77;99867.34;5011286;28;20029;-48
2021/08/07 01:06:17;;;;;;;2.67;2.47;;;;;;;19.27;68.76;99868.19;5026893;28;20017;-47
2021/08/07 01:09:02;;;;;;;2.90;2.30;;;;;;;19.23;68.74;99866.66;5011141;28;20101;-49
2021/08/07 01:11:41;;;;;;;2.53;2.33;;;;;;;19.25;68.70;99878.13;5013004;28;20036;-48
2021/08/07 01:14:08;;;;;;;2.92;2.00;;;;;;;19.25;68.64;99872.78;5007037;28;20017;-48
2021/08/07 01:16:38;;;;;;;2.83;2.13;;;;;;;19.28;68.56;99872.59;5008776;28;20025;-48
2021/08/07 01:19:03;;;;;;;3.63;2.22;;;;;;;19.26;68.65;99866.47;5003362;28;20572;-49
2021/08/07 01:21:36;;;;;;;2.83;2.63;;;;;;;19.26;68.49;99862.94;5014767;28;20029;-49
2021/08/07 01:24:05;;;;;;;2.30;2.10;;;;;;;19.27;68.53;99862.00;5014904;28;20026;-48
2021/08/07 01:27:05;;;;;;;2.47;2.28;;;;;;;19.26;68.54;99871.81;5010683;28;20030;-48
2021/08/07 01:29:30;;;;;;;3.72;2.33;;;;;;;19.23;68.64;99867.53;4980896;28;20092;-48
2021/08/07 01:31:55;;;;;;;2.25;2.10;;;;;;;19.26;68.71;99866.47;5013685;28;20436;-47
2021/08/07 01:34:21;;;;;;;3.60;1.92;;;;;;;19.26;68.21;99860.25;5004464;28;20401;-47
2021/08/07 01:36:47;;;;;;;2.67;2.20;;;;;;;19.22;68.62;99871.16;5007998;28;20363;-47
2021/08/07 01:39:13;;;;;;;3.38;2.53;;;;;;;19.22;68.52;99862.25;5018767;28;20033;-50
2021/08/07 01:41:39;;;;;;;2.35;2.10;;;;;;;19.23;68.41;99864.84;5009671;28;20034;-48
2021/08/07 01:44:04;;;;;;;2.70;2.50;;;;;;;19.27;68.31;99867.34;5013166;28;20018;-51
2021/08/07 01:46:33;;;;;;;3.83;2.30;;;;;;;19.27;68.30;99870.84;5013045;28;20060;-50
2021/08/07 01:49:12;;;;;;;2.30;2.10;;;;;;;19.26;68.21;99871.81;5011968;28;20017;-50
2021/08/07 01:51:42;;;;;;;3.33;2.72;;;;;;;19.26;68.35;99866.47;5012609;28;20030;-51
2021/08/07 01:54:08;;;;;;;2.40;2.20;;;;;;;19.25;68.32;99867.44;5008506;28;20097;-47
2021/08/07 01:56:37;;;;;;;1.83;1.55;;;;;;;19.27;68.17;99864.66;5011010;28;20029;-47
2021/08/07 01:59:12;;;;;;;2.53;2.13;;;;;;;19.25;68.17;99862.09;5009997;28;20053;-49
2021/08/07 02:01:39;;;;;;;2.35;2.17;;;;;;;19.29;68.29;99858.28;5008327;28;20025;-46
2021/08/07 02:04:05;;;;;;;2.17;1.98;;;;;;;19.25;68.13;99856.75;5016447;28;20022;-48
2021/08/07 02:06:31;;;;;;;1.90;1.80;;;;;;;19.26;68.16;99854.91;5010379;28;20064;-47
2021/08/07 02:08:57;;;;;;;2.13;2.03;;;;;;;19.25;67.94;99854.06;5010261;28;20060;-47
2021/08/07 02:11:23;;;;;;;1.85;1.75;;;;;;;19.23;67.98;99862.19;5011390;28;20026;-47
2021/08/07 02:13:48;;;;;;;1.92;1.83;;;;;;;19.22;68.21;99855.13;5008497;28;20521;-48
2021/08/07 02:16:15;;;;;;;2.30;2.10;;;;;;;19.19;68.19;99860.63;5012395;28;20118;-46
2021/08/07 02:18:41;;;;;;;2.53;1.70;;;;;;;19.18;68.30;99848.19;5015350;28;20045;-47
2021/08/07 02:21:07;;;;;;;3.28;1.92;;;;;;;19.19;68.10;99855.28;5005588;28;20022;-47
2021/08/07 02:23:33;;;;;;;2.30;2.03;;;;;;;19.18;68.21;99842.00;5005253;28;20493;-47
2021/08/07 02:26:02;;;;;;;2.53;2.22;;;;;;;19.18;68.16;99842.00;5011475;28;20022;-47
2021/08/07 02:28:29;;;;;;;1.58;1.48;;;;;;;19.17;68.17;99853.66;5010068;28;20114;-47
2021/08/07 02:30:55;;;;;;;1.83;1.73;;;;;;;19.19;68.14;99849.06;5014713;28;20040;-47
2021/08/07 02:33:22;;;;;;;1.90;1.80;;;;;;;19.16;68.08;99846.56;5016187;28;20026;-48
2021/08/07 02:35:48;;;;;;;2.45;2.25;;;;;;;19.16;68.13;99838.56;5012098;28;20473;-47
2021/08/07 02:38:15;;;;;;;2.05;1.90;;;;;;;19.15;67.99;99842.19;5000037;28;20033;-47
2021/08/07 02:40:40;;;;;;;2.42;2.20;;;;;;;19.13;68.26;99839.59;5008868;28;20476;-48
2021/08/07 02:43:06;;;;;;;1.92;1.83;;;;;;;19.13;68.28;99844.06;5002434;28;20022;-47
2021/08/07 02:45:32;;;;;;;2.30;2.20;;;;;;;19.13;68.09;99844.94;5004425;28;20034;-47
2021/08/07 02:47:57;;;;;;;1.73;1.63;;;;;;;19.10;68.22;99843.31;5005161;28;20066;-48
2021/08/07 02:53:45;;;;;;;2.22;2.00;;;;;;;19.10;68.08;99846.00;5005445;28;20099;-48
2021/08/07 02:56:10;;;;;;;2.45;1.95;;;;;;;19.09;67.89;99849.63;5010768;28;20480;-47
2021/08/07 03:01:15;;;;;;;2.28;2.08;;;;;;;19.08;68.01;99852.38;4986075;28;20042;-48
2021/08/07 03:03:40;;;;;;;2.05;1.73;;;;;;;19.05;68.05;99853.38;4991205;28;20042;-48
2021/08/07 03:06:06;;;;;;;2.25;2.05;;;;;;;19.05;68.17;99847.19;4991981;28;20752;-47
2021/08/07 03:08:31;;;;;;;1.98;1.88;;;;;;;19.05;68.00;99850.72;4992028;28;20022;-48
2021/08/07 03:10:56;;;;;;;2.38;2.10;;;;;;;19.04;67.99;99846.31;4989071;28;20485;-49
2021/08/07 03:13:22;;;;;;;2.67;2.15;;;;;;;19.06;68.08;99843.53;4991220;28;20516;-49
2021/08/07 03:15:47;;;;;;;2.75;2.03;;;;;;;19.06;68.10;99851.56;4985584;28;20033;-48
2021/08/07 03:18:12;;;;;;;2.53;1.95;;;;;;;19.05;67.92;99849.84;4987652;28;20034;-46
2021/08/07 03:20:38;;;;;;;2.22;2.03;;;;;;;19.04;68.06;99856.16;4988326;28;20034;-48
2021/08/07 03:23:06;;;;;;;2.22;1.95;;;;;;;19.04;68.15;99854.31;4989860;28;20023;-49
2021/08/07 03:25:33;;;;;;;2.22;2.00;;;;;;;19.03;68.09;99849.94;4991196;28;20076;-49
2021/08/07 03:27:58;;;;;;;2.00;1.90;;;;;;;19.04;67.84;99862.34;4988764;28;20370;-49
2021/08/07 03:30:24;;;;;;;1.88;1.77;;;;;;;19.03;67.78;99860.63;4986564;28;20497;-48
2021/08/07 03:32:49;;;;;;;3.22;2.20;;;;;;;19.04;67.85;99857.00;4989312;28;20034;-49
2021/08/07 03:35:15;;;;;;;2.72;1.80;;;;;;;19.05;67.90;99857.88;4989268;28;20022;-47
2021/08/07 03:37:40;;;;;;;2.03;1.92;;;;;;;19.04;67.71;99865.00;4987973;28;20026;-49
2021/08/07 03:40:06;;;;;;;2.17;1.95;;;;;;;19.03;67.79;99855.28;4991243;28;20476;-47
2021/08/07 03:42:31;;;;;;;2.25;2.05;;;;;;;19.02;67.74;99853.56;4990302;28;20072;-48
2021/08/07 03:44:56;;;;;;;1.95;1.83;;;;;;;19.03;67.83;99852.59;4987842;28;20034;-47
2021/08/07 03:47:22;;;;;;;1.70;1.60;;;;;;;19.00;67.79;99847.44;4990249;28;20019;-48
2021/08/07 03:49:48;;;;;;;1.90;1.80;;;;;;;19.02;67.61;99852.69;4978750;28;20027;-48
2021/08/07 03:52:13;;;;;;;2.22;1.80;;;;;;;19.00;67.89;99844.75;4985909;28;20049;-47
2021/08/07 03:54:38;;;;;;;2.33;1.88;;;;;;;19.00;67.39;99847.44;4971194;28;20089;-48
2021/08/07 03:57:04;;;;;;;2.17;1.98;;;;;;;19.01;67.57;99848.31;4988615;28;20390;-47
2021/08/07 03:59:29;;;;;;;2.30;2.10;;;;;;;19.00;67.60;99850.09;4987731;28;20117;-49
2021/08/07 04:01:54;;;;;;;2.40;2.20;;;;;;;19.00;67.57;99849.25;4971819;28;20068;-48
2021/08/07 04:04:20;;;;;;;2.20;2.10;;;;;;;19.00;67.65;99851.94;4990524;28;20018;-47
2021/08/07 04:06:45;;;;;;;2.30;2.20;;;;;;;18.98;67.51;99846.69;4991240;28;20030;-48
2021/08/07 04:09:10;;;;;;;2.30;2.10;;;;;;;18.98;67.50;99854.69;4988631;28;20042;-48
2021/08/07 04:11:36;;;;;;;2.42;2.22;;;;;;;18.99;67.62;99853.72;4988832;28;20441;-47
2021/08/07 04:14:02;;;;;;;2.55;2.20;;;;;;;18.95;67.47;99854.88;4990451;28;20203;-48
2021/08/07 04:16:28;;;;;;;2.47;2.28;;;;;;;18.93;67.57;99859.41;4987665;28;20037;-48
2021/08/07 04:18:53;;;;;;;2.20;2.03;;;;;;;18.97;67.52;99858.28;4989156;28;20026;-49
2021/08/07 04:21:19;;;;;;;2.17;1.98;;;;;;;18.96;67.59;99856.56;4988536;28;20084;-49
2021/08/07 04:23:44;;;;;;;2.65;2.45;;;;;;;18.95;67.41;99857.53;4990331;28;20030;-49
2021/08/07 04:29:30;;;;;;;;;;;;;;;18.93;67.61;99849.59;4987310;28;20040;-47
2021/08/07 04:31:56;;;;;;;2.50;2.27;;;;;;;18.92;67.64;99849.69;4967094;28;19917;-49
2021/08/07 04:34:21;;;;;;;3.42;2.35;;;;;;;18.92;67.42;99853.22;4985723;28;20280;-47
2021/08/07 04:36:46;;;;;;;2.72;2.13;;;;;;;18.92;67.44;99855.03;4991231;28;20034;-49
2021/08/07 04:39:12;;;;;;;1.92;1.83;;;;;;;18.92;67.58;99855.03;4988725;28;20379;-48
2021/08/07 04:41:38;;;;;;;3.83;2.22;;;;;;;18.91;67.42;99850.66;4990696;28;20041;-49
2021/08/07 04:44:04;;;;;;;3.22;2.10;;;;;;;18.88;67.37;99849.03;4987440;28;20022;-48
2021/08/07 04:46:30;;;;;;;2.30;2.10;;;;;;;18.91;67.60;99859.50;4990397;28;20390;-48
2021/08/07 04:48:55;;;;;;;2.15;1.95;;;;;;;18.88;67.57;99857.03;4989424;28;20065;-48
2021/08/07 04:51:20;;;;;;;2.28;2.03;;;;;;;18.89;67.55;99853.41;4988517;28;20058;-47
2021/08/07 04:53:46;;;;;;;1.95;1.85;;;;;;;18.87;67.43;99857.97;4987019;28;20030;-45
2021/08/07 04:56:11;;;;;;;2.00;1.90;;;;;;;18.86;67.37;99858.91;4989845;28;20073;-44
2021/08/07 04:58:36;;;;;;;2.50;2.30;;;;;;;18.90;67.42;99872.97;4987856;28;20026;-44
2021/08/07 05:01:02;;;;;;;2.30;2.00;;;;;;;18.87;67.39;99865.13;4985746;28;20030;-44
2021/08/07 05:03:27;;;;;;;2.75;2.10;;;;;;;18.87;67.43;99865.13;4993587;28;20065;-44
2021/08/07 05:05:52;;;;;;;4.72;2.20;;;;;;;18.86;67.34;99869.59;4992092;28;20045;-44
2021/08/07 05:08:17;;;;;;;3.17;2.15;;;;;;;18.87;67.47;99870.47;4993440;28;20508;-44
2021/08/07 05:10:43;;;;;;;4.20;2.60;;;;;;;18.83;67.44;99864.44;4992412;28;20026;-45
2021/08/07 05:13:11;;;;;;;2.33;2.13;;;;;;;18.82;67.49;99868.94;4994100;28;20030;-44
2021/08/07 05:15:36;;;;;;;3.30;2.10;;;;;;;18.83;67.48;99875.13;4989848;28;20030;-45
2021/08/07 05:18:05;;;;;;;2.47;2.22;;;;;;;18.79;67.44;99871.78;4992051;28;20030;-46
2021/08/07 05:20:30;;;;;;;3.05;2.33;;;;;;;18.79;67.39;99874.44;4991443;28;20034;-44
2021/08/07 05:22:56;;;;;;;2.60;2.40;;;;;;;18.85;67.42;99879.41;4990503;28;20118;-44
2021/08/07 05:25:21;;;;;;;2.38;2.17;;;;;;;18.82;67.30;99884.97;4986695;28;20031;-46
2021/08/07 05:27:58;;;;;;;2.35;2.15;;;;;;;18.82;67.44;99874.28;4972575;28;20501;-46
2021/08/07 05:30:24;;;;;;;2.22;2.10;;;;;;;18.80;67.44;99881.50;4988232;28;20034;-44
2021/08/07 05:32:49;;;;;;;2.70;1.90;;;;;;;18.79;67.47;99874.44;4989735;28;20133;-51
2021/08/07 05:35:15;;;;;;;2.75;1.95;;;;;;;18.82;67.56;99878.75;4992384;28;20034;-44
2021/08/07 05:37:41;;;;;;;1.98;1.88;;;;;;;18.80;67.44;99876.16;4989909;28;20065;-44
2021/08/07 05:40:09;;;;;;;2.00;1.90;;;;;;;18.80;67.42;99872.59;4988923;28;20030;-45
2021/08/07 05:42:35;;;;;;;2.42;2.15;;;;;;;18.76;67.49;99869.25;4989423;28;20517;-45
2021/08/07 05:45:00;;;;;;;4.00;2.08;;;;;;;18.78;67.59;99883.41;4991276;28;20042;-46
2021/08/07 05:47:25;;;;;;;3.28;2.13;;;;;;;18.79;67.48;99885.13;4989834;28;20117;-45
2021/08/07 05:49:51;;;;;;;2.30;2.10;;;;;;;18.79;67.48;99881.59;4984967;28;20023;-44
2021/08/07 05:52:16;;;;;;;1.80;1.70;;;;;;;18.77;67.56;99886.16;4991946;28;20034;-46
2021/08/07 05:54:41;;;;;;;3.15;2.38;;;;;;;18.79;67.42;99885.13;4990682;28;20457;-45
2021/08/07 05:57:07;;;;;;;4.55;2.15;;;;;;;18.72;67.46;99873.94;4990727;28;20504;-44
2021/08/07 05:59:32;;;;;;;2.17;1.85;;;;;;;18.77;67.35;99876.31;4990043;28;20383;-47
2021/08/07 06:01:57;;;;;;;1.80;1.60;;;;;;;18.76;67.58;99876.41;4989952;28;20072;-44
2021/08/07 06:04:23;;;;;;;2.17;1.95;;;;;;;18.78;67.51;99872.72;4989346;28;20026;-44
2021/08/07 06:06:48;;;;;;;2.92;1.92;;;;;;;18.77;67.72;99876.31;4990736;28;20033;-44
2021/08/07 06:09:13;;;;;;;2.53;2.33;;;;;;;18.76;67.49;99874.59;4990693;28;20461;-48
2021/08/07 06:11:39;;;;;;;1.70;1.60;;;;;;;18.75;67.42;99872.91;4990011;28;20034;-47
2021/08/07 06:14:04;;;;;;;1.92;1.73;;;;;;;18.75;67.74;99877.38;4983203;28;20030;-50
2021/08/07 06:16:29;;;;;;;2.33;1.88;;;;;;;18.74;67.68;99887.16;4988113;28;20030;-46
2021/08/07 06:18:55;;;;;;;1.88;1.77;;;;;;;18.75;67.58;99880.03;4988149;28;20097;-44
2021/08/07 06:21:20;;;;;;;2.70;1.88;;;;;;;18.77;67.69;99880.81;4990767;28;20030;-44
2021/08/07 06:23:45;;;;;;;2.10;1.90;;;;;;;18.75;67.65;99875.56;4986213;28;20078;-48
2021/08/07 06:26:11;;;;;;;2.30;2.10;;;;;;;18.72;67.56;99875.72;4988550;28;20033;-46
2021/08/07 06:28:38;;;;;;;2.83;2.00;;;;;;;18.73;67.71;99874.78;4989455;28;20029;-44
2021/08/07 06:31:03;;;;;;;2.83;2.20;;;;;;;18.72;67.59;99879.28;4990483;28;20026;-44
2021/08/07 06:33:28;;;;;;;1.98;1.80;;;;;;;18.74;67.75;99878.31;4991431;28;20035;-44
2021/08/07 06:35:54;;;;;;;1.80;1.70;;;;;;;18.72;67.45;99876.59;4984954;28;20034;-46
2021/08/07 06:38:19;;;;;;;3.83;1.75;;;;;;;18.72;67.60;99878.41;4988638;28;20022;-44
2021/08/07 06:40:44;;;;;;;2.40;2.20;;;;;;;18.70;67.81;99866.94;4985119;28;20026;-44
2021/08/07 06:43:10;;;;;;;2.38;1.73;;;;;;;18.72;67.65;99873.94;4989205;28;20019;-44
2021/08/07 06:45:35;;;;;;;2.05;1.88;;;;;;;18.73;67.92;99885.47;4988389;28;20030;-44
2021/08/07 06:48:00;;;;;;;2.13;1.88;;;;;;;18.69;67.64;99881.25;4990195;28;20113;-46
2021/08/07 06:50:25;;;;;;;1.90;1.80;;;;;;;18.69;67.94;99875.91;4985857;28;20030;-44
2021/08/07 06:52:51;;;;;;;2.30;1.90;;;;;;;18.70;67.90;99869.59;4987438;28;20022;-45
2021/08/07 06:55:16;;;;;;;1.85;1.75;;;;;;;18.69;67.80;99879.44;4987531;28;20029;-48
2021/08/07 06:57:41;;;;;;;1.80;1.70;;;;;;;18.66;67.97;99878.72;4989661;28;20040;-44
2021/08/07 07:00:11;;;;;;;2.08;1.88;;;;;;;18.67;67.82;99872.47;4988265;28;20462;-51
2021/08/07 07:02:36;;;;;;;2.00;1.90;;;;;;;18.66;68.14;99871.59;4991623;28;20371;-46
2021/08/07 07:05:03;;;;;;;1.92;1.83;;;;;;;18.67;67.88;99867.97;4991014;28;20029;-46
2021/08/07 07:07:28;;;;;;;2.38;2.17;;;;;;;18.66;67.85;99860.03;4991768;28;20022;-46
2021/08/07 07:09:54;;;;;;;2.00;1.80;;;;;;;18.70;67.74;99859.78;4986572;28;20521;-45
2021/08/07 07:12:19;;;;;;;1.75;1.65;;;;;;;18.65;68.05;99866.34;4990244;28;20026;-46
2021/08/07 07:14:48;;;;;;;2.30;1.88;;;;;;;18.64;68.27;99864.63;4988259;28;20027;-46
2021/08/07 07:17:13;;;;;;;2.67;2.15;;;;;;;18.62;68.24;99856.69;4990159;28;20026;-46
2021/08/07 07:19:39;;;;;;;1.80;1.70;;;;;;;18.64;68.23;99861.94;4985976;28;20040;-46
2021/08/07 07:22:05;;;;;;;2.25;2.08;;;;;;;18.64;68.20;99862.78;4987629;28;20029;-47
2021/08/07 07:24:32;;;;;;;2.15;2.00;;;;;;;18.65;68.05;99863.66;4989166;28;20047;-46
2021/08/07 07:26:57;;;;;;;1.88;1.77;;;;;;;18.63;68.18;99862.88;4989128;28;20065;-46
2021/08/07 07:29:23;;;;;;;1.75;1.65;;;;;;;18.66;67.89;99858.25;4968604;28;20405;-46
2021/08/07 07:31:48;;;;;;;2.08;1.88;;;;;;;18.65;68.10;99853.84;4989005;28;20065;-45
2021/08/07 07:34:13;;;;;;;2.30;2.10;;;;;;;18.65;68.01;99855.66;4991843;28;20045;-46
2021/08/07 07:36:39;;;;;;;1.85;1.75;;;;;;;18.65;68.20;99859.19;4988842;28;20030;-46
2021/08/07 07:39:04;;;;;;;2.08;1.88;;;;;;;18.62;68.17;99855.81;4988277;28;20029;-45
2021/08/07 07:41:30;;;;;;;2.03;1.92;;;;;;;18.63;68.19;99862.88;4989358;28;20030;-46
2021/08/07 07:43:55;;;;;;;2.25;2.00;;;;;;;18.63;68.22;99862.88;4990332;28;20038;-46
2021/08/07 07:46:20;;;;;;;2.00;1.90;;;;;;;18.64;68.27;99869.97;4991289;28;20030;-45
2021/08/07 07:48:46;;;;;;;1.83;1.35;;;;;;;18.65;68.39;99869.00;4991218;28;20044;-45
2021/08/07 07:51:11;;;;;;;1.77;1.67;;;;;;;18.61;68.37;99863.00;4990268;28;20026;-46
2021/08/07 07:53:36;;;;;;;1.98;1.88;;;;;;;18.66;68.07;99866.25;4988936;28;20054;-46
2021/08/07 07:56:02;;;;;;;1.70;1.60;;;;;;;18.67;68.30;99859.13;4987731;28;20034;-45
2021/08/07 07:58:28;;;;;;;1.88;1.77;;;;;;;18.67;68.16;99859.97;4989402;28;20113;-46
2021/08/07 08:00:54;;;;;;;3.08;2.22;;;;;;;18.63;68.50;99855.75;4990574;28;20037;-46
2021/08/07 08:03:19;;;;;;;2.03;1.50;;;;;;;18.66;68.29;99857.38;4989666;28;20034;-46
2021/08/07 08:05:44;;;;;;;1.60;1.50;;;;;;;18.64;68.35;99859.28;4988460;28;20118;-46
2021/08/07 08:08:10;;;;;;;1.55;1.45;;;;;;;18.66;68.42;99858.25;4989088;28;20030;-46
2021/08/07 08:10:40;;;;;;;1.70;1.60;;;;;;;18.66;68.22;99863.59;4990452;28;20026;-46
2021/08/07 08:13:05;;;;;;;1.83;1.73;;;;;;;18.66;68.34;99870.72;4989844;28;20458;-46
2021/08/07 08:15:31;;;;;;;1.70;1.60;;;;;;;18.65;68.39;99861.88;4987411;28;20025;-46
2021/08/07 08:18:01;;;;;;;2.10;2.00;;;;;;;18.68;68.24;99866.16;4990015;28;20045;-45
2021/08/07 08:20:27;;;;;;;1.67;1.58;;;;;;;18.67;68.17;99869.78;4988900;28;20085;-46
2021/08/07 08:22:52;;;;;;;2.25;1.80;;;;;;;18.67;68.32;99861.78;4989648;28;20478;-46
2021/08/07 08:25:17;;;;;;;2.47;2.05;;;;;;;18.68;68.23;99858.16;4989304;28;20533;-46
2021/08/07 08:27:43;;;;;;;2.00;1.80;;;;;;;18.67;68.32;99859.97;4990247;28;20037;-46
2021/08/07 08:30:08;;;;;;;1.92;1.73;;;;;;;18.69;68.31;99860.75;4987269;28;20045;-46
2021/08/07 08:32:34;;;;;;;2.17;1.98;;;;;;;18.67;68.35;99859.13;4990479;28;20022;-46
2021/08/07 08:34:59;;;;;;;1.45;1.35;;;;;;;18.66;68.50;99857.38;4986077;28;20030;-46
2021/08/07 08:37:24;;;;;;;1.95;1.63;;;;;;;18.68;68.62;99860.84;4992306;28;20029;-46
2021/08/07 08:39:50;;;;;;;1.65;1.55;;;;;;;18.67;68.41;99859.97;4993379;28;20106;-46
2021/08/07 08:42:15;;;;;;;1.90;1.80;;;;;;;18.66;68.66;99868.06;4990353;28;20026;-46
2021/08/07 08:44:41;;;;;;;1.80;1.70;;;;;;;18.69;68.38;99862.53;4975853;28;20397;-46
2021/08/07 08:47:08;;;;;;;1.92;1.83;;;;;;;18.66;68.64;99865.38;4993810;28;20030;-46
2021/08/07 08:49:34;;;;;;;1.98;1.88;;;;;;;18.65;68.70;99867.22;4992387;28;20023;-46
2021/08/07 08:52:01;;;;;;;2.28;1.70;;;;;;;18.65;68.46;99866.34;4991612;28;20110;-46
2021/08/07 08:54:27;;;;;;;2.35;1.60;;;;;;;18.59;68.39;99846.19;4987920;28;20506;-46
2021/08/07 08:56:52;;;;;;;1.80;1.70;;;;;;;18.66;68.60;99865.38;4989349;28;20113;-46
2021/08/07 08:59:21;;;;;;;1.90;1.80;;;;;;;18.66;68.56;99863.59;4991227;28;20379;-46
2021/08/07 09:01:48;;;;;;;2.22;1.65;;;;;;;18.66;68.74;99857.38;4996249;22;20519;-48
2021/08/07 09:04:13;;;;;;;1.90;1.70;;;;;;;18.64;68.65;99853.94;4995779;28;20515;-49
2021/08/07 09:06:38;;;;;;;1.70;1.60;;;;;;;18.66;68.50;99857.38;4995029;28;20030;-49
2021/08/07 09:09:09;;;;;;;1.65;1.55;;;;;;;18.64;68.62;99860.13;5001243;28;20469;-49
2021/08/07 09:11:36;;;;;;;1.70;1.60;;;;;;;18.67;68.36;99859.13;5001431;28;20029;-49
2021/08/07 09:14:13;;;;;;;2.97;1.77;;;;;;;18.90;68.13;99854.28;5011292;28;20042;-49
2021/08/07 09:17:06;;;;;;;1.60;1.50;;;;;;;19.08;68.54;99852.38;5010002;28;20124;-49
2021/08/07 09:19:40;;;;;;;1.60;1.50;;;;;;;19.18;68.98;99858.03;5010267;28;20017;-49
2021/08/07 09:22:21;;;;;;;2.13;1.52;;;;;;;19.25;68.52;99864.75;5009768;28;20041;-49
2021/08/07 09:24:56;;;;;;;1.58;1.48;;;;;;;19.31;68.80;99864.38;5011907;28;20512;-48
2021/08/07 09:27:54;;;;;;;1.60;1.50;;;;;;;19.36;67.82;99862.31;5010414;28;20033;-50
2021/08/07 09:30:21;;;;;;;5.47;2.33;;;;;;;19.41;67.53;99853.16;5005903;28;20046;-49
2021/08/07 09:33:01;;;;;;;1.58;1.48;;;;;;;19.43;66.85;99848.56;5012619;28;20554;-50
2021/08/07 09:35:33;;;;;;;1.75;1.65;;;;;;;19.45;66.26;99847.53;5007232;28;20042;-50
2021/08/07 09:38:24;;;;;;;1.55;1.45;;;;;;;19.51;66.37;99837.44;5012593;28;20428;-49
2021/08/07 09:40:58;;;;;;;3.03;2.00;;;;;;;19.54;66.29;99832.75;5009858;28;20473;-50
2021/08/07 09:43:28;;;;;;;1.40;1.30;;;;;;;19.57;66.17;99837.06;5009580;28;20034;-48
2021/08/07 09:46:17;;;;;;;2.13;1.70;;;;;;;19.63;66.54;99831.31;5009547;28;20133;-48
2021/08/07 09:48:45;;;;;;;3.38;1.75;;;;;;;19.53;66.99;99839.03;5004210;28;20041;-50
2021/08/07 09:51:28;;;;;;;1.80;1.70;;;;;;;19.45;67.07;99826.16;5008559;28;20029;-49
2021/08/07 09:54:08;;;;;;;1.90;1.80;;;;;;;19.39;67.30;99820.28;5011238;28;20026;-50
2021/08/07 09:56:53;;;;;;;2.17;2.08;;;;;;;19.31;67.62;99816.25;5010164;28;20404;-47
2021/08/07 09:59:24;;;;;;;3.45;2.65;;;;;;;19.33;67.38;99825.06;5008926;28;20026;-49
2021/08/07 10:01:52;;;;;;;3.53;2.97;;;;;;;19.34;67.50;99821.44;5010827;28;20037;-49
2021/08/07 10:04:20;;;;;;;3.30;3.00;;;;;;;19.33;67.65;99809.03;5008346;28;20037;-48
2021/08/07 10:06:47;;;;;;;3.08;2.58;;;;;;;19.28;67.49;99821.81;5004151;28;20022;-50
2021/08/07 10:09:12;;;;;;;2.28;2.08;;;;;;;19.29;67.39;99814.63;5011674;28;20029;-50
2021/08/07 10:11:39;;;;;;;2.05;1.85;;;;;;;19.26;67.55;99821.03;5008126;28;20045;-49
2021/08/07 10:14:05;;;;;;;2.10;1.77;;;;;;;19.27;67.70;99819.22;5002401;28;20042;-46
2021/08/07 10:16:31;;;;;;;2.25;2.05;;;;;;;19.23;67.64;99813.19;5011483;28;20168;-46
2021/08/07 10:18:57;;;;;;;2.53;2.33;;;;;;;19.22;67.78;99820.38;5009999;28;20036;-46
2021/08/07 10:21:23;;;;;;;1.85;1.70;;;;;;;19.20;67.75;99814.25;5006754;28;20068;-46
2021/08/07 10:23:51;;;;;;;2.53;1.88;;;;;;;19.18;67.79;99804.59;5008624;28;20100;-46
2021/08/07 10:26:19;;;;;;;2.30;2.10;;;;;;;19.18;67.69;99812.63;5003279;28;20426;-46
2021/08/07 10:28:52;;;;;;;3.45;2.10;;;;;;;19.19;67.81;99798.28;5009154;28;20110;-46
2021/08/07 10:31:21;;;;;;;2.72;2.53;;;;;;;19.17;67.86;99800.22;5007605;28;20435;-46
2021/08/07 10:33:49;;;;;;;3.83;2.45;;;;;;;19.16;67.92;99818.03;5009622;28;20041;-46
2021/08/07 10:36:14;;;;;;;2.92;1.85;;;;;;;19.16;67.89;99817.16;5008232;28;20040;-46
2021/08/07 10:38:40;;;;;;;2.20;1.67;;;;;;;19.14;67.95;99809.25;5012407;28;20030;-46
2021/08/07 10:41:07;;;;;;;1.92;1.83;;;;;;;19.15;67.83;99797.63;5013832;28;20033;-46
2021/08/07 10:43:35;;;;;;;2.35;1.92;;;;;;;19.15;67.93;99799.44;5013866;28;20397;-46
2021/08/07 10:46:05;;;;;;;2.95;2.17;;;;;;;19.14;67.98;99797.72;5007404;28;20481;-46
2021/08/07 10:48:34;;;;;;;1.98;1.88;;;;;;;19.14;67.91;99795.03;5008328;28;20056;-47
2021/08/07 10:50:59;;;;;;;2.20;2.00;;;;;;;19.15;67.98;99788.72;5007037;28;20029;-46
2021/08/07 10:53:25;;;;;;;1.90;1.80;;;;;;;19.16;67.94;99791.31;5004431;28;20392;-46
2021/08/07 10:55:55;;;;;;;2.10;1.90;;;;;;;19.10;68.05;99784.53;5006939;28;20042;-46
2021/08/07 10:58:39;;;;;;;2.00;1.77;;;;;;;19.12;67.96;99788.91;5006746;28;20064;-46
2021/08/07 11:01:19;;;;;;;2.63;1.90;;;;;;;19.10;68.03;99786.31;5006160;28;20303;-46
2021/08/07 11:03:45;;;;;;;2.03;1.93;;;;;;;19.13;68.10;99785.28;5008008;28;20421;-46
2021/08/07 11:06:11;;;;;;;1.88;1.77;;;;;;;19.12;67.86;99788.91;5007425;28;20038;-47
2021/08/07 11:08:37;;;;;;;2.17;1.52;;;;;;;19.09;68.15;99782.81;5006826;28;20050;-46
2021/08/07 11:11:31;;;;;;;2.22;2.10;;;;;;;19.10;68.14;99775.63;5009192;28;20129;-46
2021/08/07 11:14:24;;;;;;;2.40;2.20;;;;;;;19.14;68.06;99771.00;4997669;28;20038;-46
2021/08/07 11:17:02;;;;;;;2.28;1.90;;;;;;;19.16;67.88;99753.03;5009264;28;20084;-46
2021/08/07 11:19:47;;;;;;;1.65;1.55;;;;;;;19.14;68.10;99749.59;5009238;28;20025;-46
2021/08/07 11:22:17;;;;;;;2.13;1.90;;;;;;;19.14;67.88;99755.78;5004228;28;20056;-45
2021/08/07 11:25:20;;;;;;;2.10;1.90;;;;;;;19.15;67.89;99754.00;5003838;28;20030;-46
2021/08/07 11:27:46;;;;;;;3.15;1.98;;;;;;;19.15;67.95;99754.00;4983926;28;20042;-46
2021/08/07 11:30:28;;;;;;;2.13;1.80;;;;;;;19.14;67.97;99745.09;5005892;28;20028;-46
2021/08/07 11:33:04;;;;;;;2.50;1.77;;;;;;;19.14;67.96;99744.25;5006704;28;20029;-44
2021/08/07 11:35:38;;;;;;;2.50;2.08;;;;;;;19.17;68.06;99736.06;5009071;28;20037;-44
2021/08/07 11:38:10;;;;;;;1.67;1.58;;;;;;;19.17;67.98;99733.41;5005247;28;20217;-44
2021/08/07 11:40:37;;;;;;;2.17;1.65;;;;;;;19.18;67.96;99729.75;5006776;28;20018;-44
2021/08/07 11:43:03;;;;;;;2.28;2.08;;;;;;;19.16;68.03;99727.19;5004583;28;20033;-44
2021/08/07 11:45:28;;;;;;;2.15;2.03;;;;;;;19.20;67.86;99738.53;5001471;28;20044;-43